Time;durP1;ratioP1;P1;durP2;ratioP2;P2;SDS_P1;SDS_P2;PMS_P1;PMS_P2;Temp;Humidity;BMP_temperature;BMP_pressure;BME280_temperature;BME280_humidity;BME280_pressure;Samples;Min_cycle;Max_cycle;Signal;HPM_P1;HPM_P2
2021/09/21 00:00:31;;;;;;;2.63;1.55;;;11.50;76.80;;;;;;5034765;28;20041;-64
2021/09/21 00:02:57;;;;;;;2.33;1.30;;;11.40;77.00;;;;;;5034627;28;20021;-64
2021/09/21 00:05:22;;;;;;;3.08;1.42;;;11.40;77.10;;;;;;5034747;28;20029;-64
2021/09/21 00:07:48;;;;;;;2.50;1.70;;;11.30;77.10;;;;;;5034485;28;20041;-64
2021/09/21 00:10:14;;;;;;;2.85;1.77;;;11.30;77.40;;;;;;5034120;28;20021;-64
2021/09/21 00:12:40;;;;;;;2.60;1.65;;;11.20;77.60;;;;;;5023567;28;20026;-64
2021/09/21 00:15:08;;;;;;;2.75;1.75;;;11.20;77.90;;;;;;5032190;28;20045;-64
2021/09/21 00:17:34;;;;;;;2.65;1.70;;;11.10;77.90;;;;;;5034293;28;20140;-64
2021/09/21 00:20:00;;;;;;;4.40;1.75;;;11.10;78.00;;;;;;5016469;28;20112;-64
2021/09/21 00:22:26;;;;;;;2.85;1.73;;;11.10;78.10;;;;;;5034144;28;20024;-64
2021/09/21 00:24:52;;;;;;;3.35;1.63;;;11.00;78.20;;;;;;5030437;28;20108;-64
2021/09/21 00:27:17;;;;;;;2.92;1.67;;;11.00;78.30;;;;;;5020683;28;20100;-64
2021/09/21 00:29:44;;;;;;;2.03;1.42;;;11.00;78.50;;;;;;5034243;28;20072;-64
2021/09/21 00:32:15;;;;;;;3.72;1.67;;;11.00;78.60;;;;;;5016190;28;20018;-64
2021/09/21 00:34:43;;;;;;;2.72;1.50;;;11.00;78.70;;;;;;5034281;28;20021;-64
2021/09/21 00:37:11;;;;;;;3.00;1.70;;;11.00;78.80;;;;;;5033251;28;20018;-64
2021/09/21 00:39:38;;;;;;;2.63;1.55;;;10.90;78.90;;;;;;5034278;28;20060;-64
2021/09/21 00:42:05;;;;;;;4.28;1.90;;;10.90;79.70;;;;;;5034489;28;20067;-64
2021/09/21 00:44:30;;;;;;;2.67;1.70;;;10.80;79.10;;;;;;5034263;28;20041;-64
2021/09/21 00:46:56;;;;;;;2.03;1.45;;;10.80;79.20;;;;;;5034311;28;20439;-64
2021/09/21 00:49:21;;;;;;;3.00;1.60;;;10.80;79.40;;;;;;5034200;28;20104;-64
2021/09/21 00:51:47;;;;;;;3.13;1.60;;;10.70;79.40;;;;;;5033805;28;20033;-64
2021/09/21 00:54:13;;;;;;;4.10;1.90;;;10.70;79.80;;;;;;5034154;28;20042;-64
2021/09/21 00:56:39;;;;;;;3.38;1.88;;;10.60;79.90;;;;;;5033926;28;20022;-64
2021/09/21 00:59:05;;;;;;;4.13;2.08;;;10.60;80.00;;;;;;5033657;28;20071;-64
2021/09/21 01:01:30;;;;;;;2.28;1.73;;;10.60;80.10;;;;;;5033809;28;20417;-64
2021/09/21 01:03:56;;;;;;;2.75;1.70;;;10.60;80.20;;;;;;5033976;28;20504;-64
2021/09/21 01:06:21;;;;;;;2.85;2.05;;;10.50;80.20;;;;;;5015964;28;21018;-64
2021/09/21 01:08:47;;;;;;;2.80;2.13;;;10.50;80.30;;;;;;5033809;28;20525;-64
2021/09/21 01:11:14;;;;;;;4.10;2.03;;;10.40;80.60;;;;;;5033761;28;20040;-64
2021/09/21 01:13:40;;;;;;;2.53;1.58;;;10.40;80.70;;;;;;5033652;28;20025;-64
2021/09/21 01:16:06;;;;;;;3.03;2.00;;;10.40;80.70;;;;;;5033941;28;20028;-64
2021/09/21 01:18:33;;;;;;;3.42;1.75;;;10.40;80.70;;;;;;5015906;28;20033;-64
2021/09/21 01:21:10;;;;;;;2.85;1.98;;;10.40;80.80;;;;;;5033553;28;20025;-64
2021/09/21 01:23:48;;;;;;;2.95;1.70;;;10.40;80.90;;;;;;5033518;28;20026;-64
2021/09/21 01:26:15;;;;;;;2.53;1.80;;;10.40;81.00;;;;;;5033473;28;20485;-64
2021/09/21 01:28:40;;;;;;;3.13;2.03;;;10.30;81.10;;;;;;5033372;28;20107;-64
2021/09/21 01:31:06;;;;;;;2.65;1.58;;;10.30;81.20;;;;;;5033423;28;20057;-64
2021/09/21 01:33:31;;;;;;;2.95;2.25;;;10.20;81.30;;;;;;5033169;28;20036;-64
2021/09/21 01:35:57;;;;;;;3.45;2.30;;;10.20;81.40;;;;;;5033435;28;20021;-64
2021/09/21 01:38:22;;;;;;;3.03;1.83;;;10.20;81.50;;;;;;5033292;28;20033;-64
2021/09/21 01:40:48;;;;;;;4.05;1.88;;;10.10;81.50;;;;;;5033153;28;20108;-64
2021/09/21 01:43:13;;;;;;;3.15;1.63;;;10.10;81.60;;;;;;5033300;28;20032;-64
2021/09/21 01:45:39;;;;;;;3.03;2.22;;;10.10;81.60;;;;;;5015405;28;20527;-64
2021/09/21 01:48:04;;;;;;;3.15;2.05;;;10.10;81.70;;;;;;5033002;28;20033;-64
2021/09/21 01:53:25;;;;;;;3.75;1.98;;;10.10;81.80;;;;;;5033050;28;20045;-64
2021/09/21 01:58:47;;;;;;;3.95;2.78;;;10.00;82.10;;;;;;5032958;28;20453;-64
2021/09/21 02:01:15;;;;;;;3.08;1.70;;;9.90;82.20;;;;;;5015304;28;20032;-64
2021/09/21 02:03:40;;;;;;;2.60;1.80;;;9.90;82.30;;;;;;5033187;28;20458;-64
2021/09/21 02:06:06;;;;;;;5.47;2.35;;;9.90;82.50;;;;;;5033076;28;20036;-64
2021/09/21 02:08:32;;;;;;;2.97;2.03;;;9.80;82.60;;;;;;5032615;28;20021;-64
2021/09/21 02:10:58;;;;;;;2.45;1.67;;;9.70;82.80;;;;;;5032023;28;20109;-64
2021/09/21 02:13:24;;;;;;;2.08;1.48;;;9.60;82.90;;;;;;5032676;28;20025;-64
2021/09/21 02:15:49;;;;;;;3.33;2.03;;;9.60;83.00;;;;;;5032598;28;20033;-64
2021/09/21 02:18:15;;;;;;;3.28;1.80;;;9.60;83.10;;;;;;5032791;28;20038;-64
2021/09/21 02:20:41;;;;;;;2.97;1.65;;;9.60;83.10;;;;;;5032333;28;20026;-64
2021/09/21 02:23:06;;;;;;;2.70;1.90;;;9.50;83.10;;;;;;5032765;28;20474;-64
2021/09/21 02:25:32;;;;;;;2.67;1.75;;;9.50;83.20;;;;;;5032532;28;20104;-64
2021/09/21 02:27:58;;;;;;;2.70;1.90;;;9.40;83.20;;;;;;5014837;28;20492;-64
2021/09/21 02:30:23;;;;;;;4.07;2.47;;;9.40;83.40;;;;;;5032623;28;20025;-64
2021/09/21 02:32:49;;;;;;;3.03;2.08;;;9.40;83.60;;;;;;5014913;28;20025;-64
2021/09/21 02:35:16;;;;;;;3.53;2.20;;;9.40;83.60;;;;;;5032690;28;20024;-64
2021/09/21 02:37:42;;;;;;;2.78;2.13;;;9.30;83.70;;;;;;5032526;28;20025;-64
2021/09/21 02:40:09;;;;;;;2.42;2.00;;;9.30;83.80;;;;;;5032560;28;20030;-64
2021/09/21 02:42:35;;;;;;;3.78;2.55;;;9.30;83.90;;;;;;5032382;28;20401;-64
2021/09/21 02:45:01;;;;;;;2.67;2.15;;;9.30;84.00;;;;;;5015027;28;20049;-64
2021/09/21 02:47:26;;;;;;;3.05;1.80;;;9.30;84.00;;;;;;5032472;28;20041;-64
2021/09/21 02:49:52;;;;;;;3.13;1.98;;;9.20;84.00;;;;;;5032360;28;20022;-64
2021/09/21 02:52:18;;;;;;;3.22;2.05;;;9.20;84.10;;;;;;5014747;28;20028;-64
2021/09/21 02:54:43;;;;;;;3.60;2.28;;;9.20;84.30;;;;;;5032354;28;20116;-63
2021/09/21 02:57:09;;;;;;;3.30;2.05;;;9.20;84.40;;;;;;5032431;28;20030;-64
2021/09/21 02:59:34;;;;;;;2.78;1.80;;;9.20;84.50;;;;;;5032282;28;20031;-64
2021/09/21 03:02:00;;;;;;;2.88;1.98;;;9.10;84.60;;;;;;5032417;28;20076;-64
2021/09/21 03:04:29;;;;;;;3.33;1.95;;;9.10;84.70;;;;;;5032352;28;20025;-64
2021/09/21 03:07:03;;;;;;;3.73;2.33;;;9.10;84.80;;;;;;5014542;28;20025;-64
2021/09/21 03:12:16;;;;;;;2.80;1.90;;;9.10;85.00;;;;;;5032460;28;20018;-64
2021/09/21 03:17:26;;;;;;;2.78;2.10;;;9.00;85.10;;;;;;5032487;28;20410;-64
2021/09/21 03:19:53;;;;;;;3.33;2.28;;;9.00;85.10;;;;;;5032104;28;20034;-64
2021/09/21 03:22:19;;;;;;;3.75;2.33;;;9.00;85.20;;;;;;5032415;28;20025;-63
2021/09/21 03:24:44;;;;;;;3.08;1.95;;;8.90;85.30;;;;;;5018111;28;20077;-63
2021/09/21 03:27:10;;;;;;;3.28;2.40;;;8.90;85.50;;;;;;5035725;28;20036;-64
2021/09/21 03:29:36;;;;;;;2.92;2.50;;;8.80;85.60;;;;;;5017892;28;20036;-64
2021/09/21 03:32:01;;;;;;;4.85;2.83;;;8.80;85.80;;;;;;5035538;28;20018;-64
2021/09/21 03:34:27;;;;;;;4.07;2.65;;;8.70;86.00;;;;;;5035625;28;20021;-64
2021/09/21 03:36:53;;;;;;;4.15;2.72;;;8.70;86.20;;;;;;5035643;28;20023;-64
2021/09/21 03:39:18;;;;;;;5.00;2.78;;;8.80;86.50;;;;;;5035614;28;20147;-64
2021/09/21 03:41:44;;;;;;;2.90;2.45;;;8.70;86.60;;;;;;5035549;28;20053;-64
2021/09/21 03:44:10;;;;;;;3.67;2.70;;;8.70;86.80;;;;;;5035589;28;20442;-64
2021/09/21 03:46:35;;;;;;;3.35;2.65;;;8.70;86.90;;;;;;5035253;28;20366;-64
2021/09/21 03:49:01;;;;;;;3.33;2.40;;;8.70;87.00;;;;;;5035379;28;20033;-64
2021/09/21 03:51:27;;;;;;;3.05;1.95;;;8.80;87.10;;;;;;5017471;28;20022;-64
2021/09/21 03:53:52;;;;;;;3.42;2.35;;;8.80;87.30;;;;;;5035019;28;20049;-64
2021/09/21 03:56:18;;;;;;;3.55;2.05;;;8.80;87.40;;;;;;5035270;28;20025;-64
2021/09/21 03:58:43;;;;;;;4.00;2.35;;;8.80;87.50;;;;;;5035032;28;20450;-64
2021/09/21 04:01:09;;;;;;;3.50;2.05;;;8.80;87.60;;;;;;5035006;28;20044;-64
2021/09/21 04:03:34;;;;;;;3.72;2.63;;;8.80;87.60;;;;;;5034998;28;20041;-64
2021/09/21 04:06:00;;;;;;;4.05;2.38;;;8.80;87.70;;;;;;5035153;28;20045;-64
2021/09/21 04:08:25;;;;;;;3.17;2.20;;;8.80;87.80;;;;;;5034904;28;20152;-64
2021/09/21 04:10:51;;;;;;;3.83;2.38;;;8.80;87.80;;;;;;5034911;28;20083;-64
2021/09/21 04:13:17;;;;;;;3.40;2.30;;;8.80;87.90;;;;;;5034848;28;20041;-64
2021/09/21 04:15:42;;;;;;;2.97;2.08;;;8.80;88.00;;;;;;5034732;28;20017;-64
2021/09/21 04:18:08;;;;;;;4.30;2.97;;;8.80;88.20;;;;;;5034930;28;20032;-64
2021/09/21 04:20:34;;;;;;;3.97;2.50;;;8.70;88.50;;;;;;5034692;28;20488;-64
2021/09/21 04:23:00;;;;;;;3.28;2.58;;;8.60;89.60;;;;;;5034691;28;20049;-64
2021/09/21 04:25:28;;;;;;;3.35;2.28;;;8.50;89.10;;;;;;5034786;28;20045;-64
2021/09/21 04:27:54;;;;;;;3.70;2.42;;;8.50;89.20;;;;;;5034717;28;20017;-64
2021/09/21 04:30:21;;;;;;;3.63;2.28;;;8.50;89.30;;;;;;5034277;28;20051;-64
2021/09/21 04:32:48;;;;;;;4.50;2.08;;;8.40;89.30;;;;;;5034496;28;20366;-64
2021/09/21 04:35:14;;;;;;;3.45;2.35;;;8.40;89.30;;;;;;5033739;28;20021;-64
2021/09/21 04:37:39;;;;;;;3.10;2.17;;;8.40;89.50;;;;;;5034549;28;20384;-64
2021/09/21 04:40:06;;;;;;;4.22;2.40;;;8.40;89.50;;;;;;5016611;28;20085;-64
2021/09/21 04:42:32;;;;;;;2.83;2.10;;;8.40;89.60;;;;;;5034284;28;20416;-64
2021/09/21 04:44:57;;;;;;;4.65;2.55;;;8.40;89.60;;;;;;5034092;28;20465;-64
2021/09/21 04:47:23;;;;;;;3.03;2.17;;;8.40;89.60;;;;;;5034288;28;20105;-64
2021/09/21 04:49:48;;;;;;;3.70;2.25;;;8.30;89.50;;;;;;5034132;28;20200;-64
2021/09/21 04:52:15;;;;;;;2.72;2.30;;;8.30;89.60;;;;;;5016262;28;20028;-64
2021/09/21 04:54:41;;;;;;;3.63;2.40;;;8.30;89.80;;;;;;5034157;28;20393;-64
2021/09/21 04:57:07;;;;;;;2.63;1.95;;;8.30;89.90;;;;;;5016372;28;20025;-64
2021/09/21 04:59:32;;;;;;;5.05;3.67;;;8.30;89.90;;;;;;5033770;28;20030;-64
2021/09/21 05:01:58;;;;;;;3.60;2.60;;;8.30;90.00;;;;;;5034016;28;20021;-64
2021/09/21 05:04:23;;;;;;;4.43;2.92;;;8.30;90.10;;;;;;5033903;28;20145;-64
2021/09/21 05:06:49;;;;;;;3.90;3.05;;;8.30;90.10;;;;;;5033876;28;20033;-64
2021/09/21 05:09:15;;;;;;;4.88;2.70;;;8.30;90.10;;;;;;5033819;28;20075;-64
2021/09/21 05:11:44;;;;;;;3.22;2.60;;;8.30;90.10;;;;;;5033585;28;20048;-64
2021/09/21 05:14:10;;;;;;;3.83;2.65;;;8.40;90.20;;;;;;5033325;28;20100;-64
2021/09/21 05:16:35;;;;;;;6.32;2.58;;;8.40;90.20;;;;;;5032874;28;20068;-64
2021/09/21 05:19:01;;;;;;;3.78;2.88;;;8.40;90.30;;;;;;5033540;28;20079;-64
2021/09/21 05:21:27;;;;;;;4.63;2.80;;;8.50;90.30;;;;;;5033576;28;20083;-64
2021/09/21 05:23:52;;;;;;;4.32;3.10;;;8.50;90.30;;;;;;5033665;28;20029;-64
2021/09/21 05:26:18;;;;;;;4.55;2.83;;;8.50;90.40;;;;;;5033602;28;20033;-64
2021/09/21 05:28:43;;;;;;;4.78;3.40;;;8.50;90.40;;;;;;5033352;28;20021;-64
2021/09/21 05:31:09;;;;;;;4.82;3.28;;;8.40;90.60;;;;;;5033272;28;20025;-64
2021/09/21 05:33:34;;;;;;;3.38;2.38;;;8.40;90.70;;;;;;5033404;28;20068;-64
2021/09/21 05:36:00;;;;;;;3.33;2.45;;;8.50;90.80;;;;;;5033435;28;20076;-64
2021/09/21 05:38:27;;;;;;;5.32;2.63;;;8.50;90.80;;;;;;5033403;28;20082;-64
2021/09/21 05:40:52;;;;;;;4.13;2.92;;;8.60;90.90;;;;;;5033262;28;20358;-64
2021/09/21 05:43:18;;;;;;;3.65;2.53;;;8.60;90.90;;;;;;5033148;28;20500;-64
2021/09/21 05:45:44;;;;;;;3.58;2.33;;;8.60;90.80;;;;;;5032835;28;20028;-64
2021/09/21 05:48:09;;;;;;;3.70;2.40;;;8.70;90.80;;;;;;5033116;28;20029;-64
2021/09/21 05:50:35;;;;;;;3.50;2.45;;;8.70;90.80;;;;;;5015409;28;20021;-64
2021/09/21 05:53:01;;;;;;;3.47;2.50;;;8.70;90.80;;;;;;5032963;28;20065;-64
2021/09/21 05:55:28;;;;;;;3.88;2.70;;;8.80;90.90;;;;;;5033160;28;20640;-64
2021/09/21 05:57:54;;;;;;;3.47;2.53;;;8.80;90.90;;;;;;5015134;28;20477;-64
2021/09/21 06:00:20;;;;;;;4.25;2.75;;;8.90;90.90;;;;;;5032794;28;20061;-64
2021/09/21 06:02:46;;;;;;;3.95;2.95;;;8.90;91.00;;;;;;5032966;28;20120;-64
2021/09/21 06:05:12;;;;;;;4.18;2.83;;;8.90;91.00;;;;;;5032944;28;20105;-64
2021/09/21 06:07:48;;;;;;;6.32;2.75;;;9.00;91.00;;;;;;5027196;28;20497;-63
2021/09/21 06:10:16;;;;;;;4.85;3.42;;;9.00;91.10;;;;;;5029732;28;20666;-64
2021/09/21 06:12:42;;;;;;;3.95;2.90;;;9.00;91.00;;;;;;5026125;28;20421;-64
2021/09/21 06:15:10;;;;;;;3.35;2.55;;;9.10;91.10;;;;;;5030233;28;20152;-64
2021/09/21 06:17:36;;;;;;;3.72;2.70;;;9.10;91.10;;;;;;5014431;28;20018;-64
2021/09/21 06:20:02;;;;;;;5.00;2.95;;;9.20;91.10;;;;;;5032749;28;20034;-64
2021/09/21 06:22:27;;;;;;;5.82;3.42;;;9.20;91.10;;;;;;5032721;28;20021;-64
2021/09/21 06:24:53;;;;;;;4.32;2.97;;;9.30;91.20;;;;;;5032673;28;20030;-64
2021/09/21 06:27:18;;;;;;;4.90;2.72;;;9.30;91.20;;;;;;5031588;28;20381;-64
2021/09/21 06:29:44;;;;;;;4.78;2.63;;;9.40;91.20;;;;;;5032642;28;20079;-64
2021/09/21 06:32:09;;;;;;;3.83;2.95;;;9.50;91.20;;;;;;5014823;28;20021;-64
2021/09/21 06:34:35;;;;;;;4.85;3.28;;;9.50;91.20;;;;;;5032636;28;20029;-64
2021/09/21 06:37:00;;;;;;;4.28;2.90;;;9.60;91.20;;;;;;5032332;28;20288;-64
2021/09/21 06:39:26;;;;;;;4.72;2.78;;;9.60;91.20;;;;;;5018680;28;20030;-64
2021/09/21 06:41:51;;;;;;;3.65;2.80;;;9.70;91.30;;;;;;5023476;28;20037;-64
2021/09/21 06:44:17;;;;;;;3.75;2.92;;;9.80;91.30;;;;;;5027427;28;20100;-64
2021/09/21 06:46:42;;;;;;;5.70;3.15;;;9.80;91.30;;;;;;5022455;28;20025;-64
2021/09/21 06:49:08;;;;;;;3.90;2.88;;;9.90;91.30;;;;;;5027986;28;20025;-64
2021/09/21 06:51:33;;;;;;;4.93;3.33;;;10.00;91.30;;;;;;5027887;28;20026;-64
2021/09/21 06:53:59;;;;;;;4.97;3.13;;;10.00;91.30;;;;;;5030087;28;20037;-64
2021/09/21 06:56:28;;;;;;;4.85;3.10;;;10.10;91.30;;;;;;5010115;28;20041;-64
2021/09/21 06:58:54;;;;;;;4.45;3.08;;;10.20;91.30;;;;;;5029686;28;20036;-64
2021/09/21 07:01:20;;;;;;;6.18;3.65;;;10.20;91.40;;;;;;5014649;28;20026;-64
2021/09/21 07:03:46;;;;;;;6.68;3.30;;;10.30;91.40;;;;;;5032655;28;20040;-64
2021/09/21 07:06:11;;;;;;;7.25;3.30;;;10.40;91.50;;;;;;5030902;28;20088;-64
2021/09/21 07:08:37;;;;;;;5.45;3.13;;;10.40;91.50;;;;;;5011782;28;20051;-64
2021/09/21 07:11:02;;;;;;;4.53;3.15;;;10.50;91.60;;;;;;5028525;28;20449;-64
2021/09/21 07:13:28;;;;;;;5.88;3.97;;;10.60;91.60;;;;;;5029935;28;20057;-64
2021/09/21 07:15:53;;;;;;;6.72;4.13;;;10.70;91.60;;;;;;5028769;28;20525;-64
2021/09/21 07:18:19;;;;;;;5.65;4.32;;;10.80;91.60;;;;;;5028542;28;20014;-64
2021/09/21 07:20:45;;;;;;;5.78;3.38;;;10.80;91.60;;;;;;5029290;28;20385;-64
2021/09/21 07:23:10;;;;;;;5.72;3.50;;;11.00;91.60;;;;;;5029583;28;20025;-65
2021/09/21 07:25:36;;;;;;;5.18;3.42;;;11.00;91.60;;;;;;5016157;28;20540;-65
2021/09/21 07:28:03;;;;;;;4.55;3.28;;;11.10;91.60;;;;;;5029772;28;20465;-64
2021/09/21 07:30:33;;;;;;;5.07;3.65;;;11.20;91.50;;;;;;5012505;28;20033;-65
2021/09/21 07:32:58;;;;;;;4.95;3.40;;;11.30;91.50;;;;;;5027356;28;20060;-65
2021/09/21 07:35:24;;;;;;;6.20;4.05;;;11.40;91.40;;;;;;5028628;28;20025;-65
2021/09/21 07:37:50;;;;;;;7.88;5.30;;;11.50;91.40;;;;;;5030868;28;20033;-65
2021/09/21 07:40:19;;;;;;;9.15;4.22;;;11.60;91.50;;;;;;5030847;28;20505;-65
2021/09/21 07:42:44;;;;;;;7.03;4.60;;;11.60;91.50;;;;;;5027382;28;20017;-65
2021/09/21 07:45:10;;;;;;;5.95;3.97;;;11.70;91.50;;;;;;5008938;28;20022;-65
2021/09/21 07:47:36;;;;;;;5.85;3.90;;;11.80;91.40;;;;;;5019427;28;20033;-64
2021/09/21 07:50:03;;;;;;;4.78;3.90;;;11.90;91.40;;;;;;5013005;28;20370;-64
2021/09/21 07:52:28;;;;;;;5.22;3.58;;;12.00;91.30;;;;;;5030348;28;20033;-64
2021/09/21 07:54:54;;;;;;;6.07;4.05;;;12.10;91.20;;;;;;5030840;28;20026;-64
2021/09/21 07:57:20;;;;;;;4.75;3.50;;;12.20;91.20;;;;;;5024794;28;20068;-65
2021/09/21 07:59:45;;;;;;;6.47;4.38;;;12.20;91.10;;;;;;5031037;28;20025;-64
2021/09/21 08:02:12;;;;;;;5.15;4.07;;;12.40;91.20;;;;;;5014634;28;20555;-65
2021/09/21 08:04:38;;;;;;;4.93;3.70;;;12.40;91.10;;;;;;5015286;28;20385;-65
2021/09/21 08:07:06;;;;;;;5.30;3.70;;;12.50;91.20;;;;;;5026729;28;20017;-64
2021/09/21 08:09:33;;;;;;;5.57;3.80;;;12.60;91.10;;;;;;5025628;28;20386;-65
2021/09/21 08:11:58;;;;;;;6.38;4.05;;;12.60;91.10;;;;;;5029709;28;20068;-65
2021/09/21 08:14:24;;;;;;;5.35;3.88;;;12.70;91.00;;;;;;5030602;28;20017;-65
2021/09/21 08:16:49;;;;;;;5.93;4.32;;;12.80;91.00;;;;;;5025353;28;20489;-65
2021/09/21 08:19:15;;;;;;;7.45;4.50;;;12.90;90.90;;;;;;5012634;28;20022;-65
2021/09/21 08:21:41;;;;;;;6.03;3.65;;;13.00;90.90;;;;;;5029927;28;20026;-65
2021/09/21 08:24:06;;;;;;;5.80;3.88;;;13.10;90.80;;;;;;5031740;28;20021;-65
2021/09/21 08:26:32;;;;;;;5.80;3.88;;;13.20;90.80;;;;;;5023483;28;20385;-65
2021/09/21 08:28:58;;;;;;;6.13;4.13;;;13.30;90.80;;;;;;5027104;28;20107;-65
2021/09/21 08:31:24;;;;;;;4.50;3.30;;;13.40;90.80;;;;;;5026454;28;20106;-65
2021/09/21 08:33:49;;;;;;;5.18;4.18;;;13.40;90.60;;;;;;5025238;28;20076;-65
2021/09/21 08:36:15;;;;;;;4.45;2.90;;;13.50;90.60;;;;;;5030166;28;20021;-65
2021/09/21 08:38:40;;;;;;;4.50;3.33;;;13.60;90.40;;;;;;5027775;28;20445;-65
2021/09/21 08:41:06;;;;;;;4.15;3.38;;;13.70;90.30;;;;;;5027683;28;20017;-65
2021/09/21 08:43:32;;;;;;;4.35;3.38;;;13.90;90.20;;;;;;5027732;28;20037;-65
2021/09/21 08:45:58;;;;;;;4.15;3.13;;;14.00;90.20;;;;;;5031616;28;20060;-65
2021/09/21 08:48:25;;;;;;;8.13;3.92;;;14.10;90.00;;;;;;5022325;28;20033;-65
2021/09/21 08:50:50;;;;;;;4.93;3.78;;;14.30;89.80;;;;;;5029345;28;20036;-65
2021/09/21 08:53:16;;;;;;;6.03;3.40;;;14.40;89.50;;;;;;5025807;28;20041;-65
2021/09/21 08:55:41;;;;;;;5.43;4.00;;;14.60;89.30;;;;;;5031986;28;20358;-65
2021/09/21 08:58:07;;;;;;;6.78;3.67;;;14.70;89.00;;;;;;5011988;28;20104;-65
2021/09/21 09:00:34;;;;;;;4.95;3.13;;;14.90;88.60;;;;;;5026694;28;20033;-65
2021/09/21 09:03:10;;;;;;;5.32;3.33;;;15.00;88.30;;;;;;5029156;28;20020;-65
2021/09/21 09:05:50;;;;;;;3.20;2.60;;;15.20;87.80;;;;;;5018610;28;20017;-65
2021/09/21 09:08:48;;;;;;;2.80;1.92;;;15.30;87.30;;;;;;5025383;28;20021;-65
2021/09/21 09:11:23;;;;;;;2.70;1.75;;;15.50;86.60;;;;;;5006378;28;20030;-65
2021/09/21 09:13:55;;;;;;;4.18;3.15;;;15.50;86.20;;;;;;5022929;28;20026;-65
2021/09/21 09:16:23;;;;;;;2.70;2.10;;;15.60;84.50;;;;;;5023710;28;20021;-65
2021/09/21 09:19:06;;;;;;;2.80;1.65;;;15.60;83.10;;;;;;5024569;28;20026;-65
2021/09/21 09:21:35;;;;;;;2.90;1.65;;;15.80;82.10;;;;;;5029645;28;20029;-65
2021/09/21 09:24:02;;;;;;;3.67;1.60;;;15.90;81.50;;;;;;5028731;28;20032;-65
2021/09/21 09:26:31;;;;;;;5.28;1.50;;;16.00;81.20;;;;;;5029738;28;20424;-65
2021/09/21 09:28:56;;;;;;;2.20;1.17;;;16.10;80.70;;;;;;5021497;28;20024;-65
2021/09/21 09:31:28;;;;;;;2.17;1.20;;;16.30;80.20;;;;;;5031273;28;20100;-65
2021/09/21 09:34:12;;;;;;;1.90;1.27;;;16.40;79.40;;;;;;5002771;28;20022;-64
2021/09/21 09:37:04;;;;;;;1.80;1.02;;;16.60;78.10;;;;;;5009868;28;20030;-65
2021/09/21 09:39:30;;;;;;;3.15;1.40;;;16.70;77.40;;;;;;5026916;28;20025;-65
2021/09/21 09:41:58;;;;;;;2.53;1.00;;;16.80;76.90;;;;;;5028788;28;20140;-65
2021/09/21 09:44:26;;;;;;;2.80;0.95;;;17.00;76.40;;;;;;5025468;28;20029;-64
2021/09/21 09:47:00;;;;;;;2.20;1.20;;;17.10;75.50;;;;;;5024831;28;20122;-64
2021/09/21 09:49:31;;;;;;;1.75;0.90;;;17.30;74.50;;;;;;5005418;28;20678;-64
2021/09/21 09:52:07;;;;;;;1.48;0.80;;;17.40;73.60;;;;;;5022288;28;20036;-65
2021/09/21 09:54:33;;;;;;;1.50;0.90;;;17.60;72.70;;;;;;5025977;28;20056;-65
2021/09/21 09:57:00;;;;;;;2.72;1.17;;;17.70;72.10;;;;;;5025556;28;20537;-65
2021/09/21 09:59:28;;;;;;;2.03;0.98;;;17.90;71.30;;;;;;5025818;28;20044;-65
2021/09/21 10:01:53;;;;;;;1.30;0.80;;;18.00;70.50;;;;;;5025625;28;20018;-65
2021/09/21 10:04:19;;;;;;;2.40;1.55;;;18.20;70.50;;;;;;5028154;28;20025;-65
2021/09/21 10:06:45;;;;;;;1.90;1.40;;;18.30;68.90;;;;;;5025619;28;20031;-65
2021/09/21 10:09:11;;;;;;;1.80;1.27;;;18.50;68.50;;;;;;5028228;28;20028;-65
2021/09/21 10:11:38;;;;;;;2.83;1.17;;;18.70;68.20;;;;;;5025537;28;20026;-65
2021/09/21 10:14:05;;;;;;;2.20;1.20;;;18.90;67.50;;;;;;5025547;28;20010;-65
2021/09/21 10:16:31;;;;;;;3.28;1.52;;;19.00;66.70;;;;;;5011164;28;20017;-65
2021/09/21 10:18:59;;;;;;;2.42;1.50;;;19.20;66.20;;;;;;5004377;28;20444;-65
2021/09/21 10:21:38;;;;;;;2.67;1.90;;;19.40;65.40;;;;;;5029159;28;20025;-65
2021/09/21 10:24:07;;;;;;;1.77;1.03;;;19.60;64.00;;;;;;5032776;28;20034;-65
2021/09/21 10:26:39;;;;;;;1.47;1.00;;;19.80;63.70;;;;;;5032626;28;20048;-65
2021/09/21 10:29:06;;;;;;;1.70;1.15;;;20.10;63.10;;;;;;5032709;28;20018;-65
2021/09/21 10:31:34;;;;;;;1.50;0.98;;;20.40;62.80;;;;;;5032421;28;20025;-65
2021/09/21 10:34:10;;;;;;;1.58;1.20;;;20.70;62.00;;;;;;5017453;28;20072;-65
2021/09/21 10:36:48;;;;;;;1.90;0.98;;;21.20;60.50;;;;;;5034632;28;20032;-66
2021/09/21 10:39:15;;;;;;;2.53;1.17;;;21.60;59.80;;;;;;5036611;28;20025;-66
2021/09/21 10:41:50;;;;;;;1.27;0.82;;;22.00;59.50;;;;;;5014056;28;20056;-65
2021/09/21 10:44:15;;;;;;;1.80;1.00;;;22.50;59.00;;;;;;5021132;28;20469;-65
2021/09/21 10:46:47;;;;;;;1.30;0.90;;;23.10;58.90;;;;;;5036381;28;20044;-66
2021/09/21 10:49:42;;;;;;;2.03;0.88;;;24.60;57.40;;;;;;5018600;28;20029;-66
2021/09/21 10:52:14;;;;;;;1.00;0.73;;;26.80;54.30;;;;;;5022233;28;20494;-66
2021/09/21 10:54:50;;;;;;;1.55;0.77;;;28.30;51.10;;;;;;5018946;28;20045;-65
2021/09/21 10:57:31;;;;;;;1.20;0.85;;;29.80;47.80;;;;;;5010586;28;20013;-65
2021/09/21 11:00:04;;;;;;;1.00;0.80;;;31.40;45.40;;;;;;5014722;28;20104;-66
2021/09/21 11:02:34;;;;;;;0.70;0.60;;;33.20;43.40;;;;;;5031232;28;20079;-66
2021/09/21 11:05:00;;;;;;;2.83;1.30;;;35.10;41.40;;;;;;5036378;28;20481;-66
2021/09/21 11:07:26;;;;;;;1.30;1.10;;;36.70;37.90;;;;;;5032477;28;20025;-66
2021/09/21 11:09:54;;;;;;;1.73;1.10;;;36.10;32.10;;;;;;5041332;28;20028;-66
2021/09/21 11:12:22;;;;;;;1.33;1.23;;;35.60;32.40;;;;;;5037213;28;20050;-66
2021/09/21 11:14:49;;;;;;;1.10;0.90;;;36.20;32.60;;;;;;5020754;28;20027;-66
2021/09/21 11:17:15;;;;;;;1.55;0.90;;;37.70;33.00;;;;;;5031869;28;20517;-66
2021/09/21 11:19:41;;;;;;;1.25;0.90;;;39.10;32.60;;;;;;5027749;28;20109;-66
2021/09/21 11:22:15;;;;;;;1.20;0.90;;;39.90;32.20;;;;;;5021994;28;20033;-66
2021/09/21 11:24:41;;;;;;;2.05;1.20;;;40.00;30.90;;;;;;5028783;28;20030;-66
2021/09/21 11:27:08;;;;;;;1.48;1.23;;;38.20;27.80;;;;;;5036659;28;20069;-66
2021/09/21 11:29:38;;;;;;;1.42;1.20;;;36.80;29.00;;;;;;5031396;28;20025;-66
2021/09/21 11:32:17;;;;;;;1.23;1.10;;;36.80;29.30;;;;;;5030400;28;20025;-66
2021/09/21 11:34:44;;;;;;;1.40;1.15;;;38.20;30.00;;;;;;5031661;28;20025;-66
2021/09/21 11:37:11;;;;;;;2.58;1.30;;;39.60;30.00;;;;;;5038626;28;20029;-66
2021/09/21 11:39:37;;;;;;;1.95;1.20;;;40.40;28.90;;;;;;5026292;28;20022;-67
2021/09/21 11:42:03;;;;;;;2.17;1.63;;;40.30;27.40;;;;;;5037174;28;20031;-67
2021/09/21 11:44:39;;;;;;;1.50;1.17;;;38.50;26.50;;;;;;5029206;28;20030;-66
2021/09/21 11:47:05;;;;;;;1.63;1.52;;;37.40;27.50;;;;;;5016579;28;20033;-66
2021/09/21 11:49:31;;;;;;;1.15;1.00;;;37.40;28.20;;;;;;5008371;28;20533;-66
2021/09/21 11:51:57;;;;;;;1.77;1.50;;;39.10;28.70;;;;;;5007590;28;20083;-66
2021/09/21 11:54:22;;;;;;;1.50;1.38;;;39.70;27.20;;;;;;5027605;28;20497;-67
2021/09/21 11:56:48;;;;;;;1.83;1.60;;;38.80;27.60;;;;;;5019813;28;20436;-66
2021/09/21 11:59:17;;;;;;;2.10;1.60;;;39.60;27.80;;;;;;5027471;28;20032;-66
2021/09/21 12:01:51;;;;;;;2.38;1.50;;;38.70;27.60;;;;;;5036026;28;20072;-66
2021/09/21 12:04:17;;;;;;;2.75;2.00;;;39.30;28.00;;;;;;5028230;28;20025;-66
2021/09/21 12:06:46;;;;;;;2.92;1.88;;;38.00;27.50;;;;;;5034262;28;20022;-66
2021/09/21 12:09:13;;;;;;;2.17;1.58;;;37.50;28.30;;;;;;5032398;28;20370;-66
2021/09/21 12:11:43;;;;;;;1.27;1.17;;;38.60;28.50;;;;;;5029139;28;20026;-66
2021/09/21 12:14:09;;;;;;;2.08;1.70;;;39.90;28.60;;;;;;5019054;28;20557;-66
2021/09/21 12:16:35;;;;;;;2.20;1.58;;;41.20;28.30;;;;;;5040643;28;20028;-67
2021/09/21 12:19:00;;;;;;;2.47;2.10;;;41.20;26.80;;;;;;5025543;28;20025;-66
2021/09/21 12:21:29;;;;;;;1.65;1.55;;;38.70;26.80;;;;;;5038221;28;20099;-66
2021/09/21 12:23:55;;;;;;;1.70;1.60;;;36.90;28.00;;;;;;5039193;28;20080;-66
2021/09/21 12:26:21;;;;;;;4.78;1.85;;;36.20;28.50;;;;;;5035302;28;20020;-66
2021/09/21 12:28:53;;;;;;;2.03;1.83;;;35.70;28.50;;;;;;5034718;28;20038;-66
2021/09/21 12:31:28;;;;;;;1.38;1.25;;;35.00;28.90;;;;;;5027401;28;20022;-66
2021/09/21 12:33:57;;;;;;;1.73;1.15;;;35.00;29.40;;;;;;5021531;28;20424;-67
2021/09/21 12:36:26;;;;;;;2.65;1.42;;;35.60;29.70;;;;;;5033713;28;20398;-66
2021/09/21 12:39:02;;;;;;;1.42;1.30;;;36.20;29.40;;;;;;5029726;28;20029;-66
2021/09/21 12:41:31;;;;;;;1.45;1.23;;;36.70;29.20;;;;;;5033657;28;20026;-66
2021/09/21 12:43:58;;;;;;;1.27;1.17;;;36.90;29.30;;;;;;5016423;28;20024;-66
2021/09/21 12:46:27;;;;;;;1.27;1.00;;;37.10;29.40;;;;;;5027806;28;20029;-66
2021/09/21 12:48:58;;;;;;;2.20;1.30;;;37.00;29.20;;;;;;5037106;28;20032;-66
2021/09/21 12:51:56;;;;;;;1.55;1.30;;;36.80;29.10;;;;;;5034815;28;20048;-66
2021/09/21 12:54:22;;;;;;;;;;;36.60;29.10;;;;;;5030654;28;20080;-66
2021/09/21 12:56:54;;;;;;;1.60;1.30;;;36.00;28.90;;;;;;5023779;28;19913;-66
2021/09/21 12:59:22;;;;;;;1.55;1.45;;;35.50;29.10;;;;;;5028857;28;20029;-66
2021/09/21 13:01:49;;;;;;;2.33;1.45;;;35.20;29.60;;;;;;5032679;28;20025;-66